sensor_id;sensor_type;location;lat;lon;timestamp;temperature;humidity
78550;DHT22;68091;52.130;5.570;2023-10-08T00:01:02;17.30;99.90
78550;DHT22;68091;52.130;5.570;2023-10-08T00:03:28;17.30;99.90
78550;DHT22;68091;52.130;5.570;2023-10-08T00:05:55;17.30;99.90
78550;DHT22;68091;52.130;5.570;2023-10-08T00:08:20;17.20;99.90
78550;DHT22;68091;52.130;5.570;2023-10-08T00:10:46;17.20;99.90
78550;DHT22;68091;52.130;5.570;2023-10-08T00:13:13;17.20;99.90
78550;DHT22;68091;52.130;5.570;2023-10-08T00:15:41;17.20;99.90
78550;DHT22;68091;52.130;5.570;2023-10-08T00:18:09;17.20;99.90
78550;DHT22;68091;52.130;5.570;2023-10-08T00:20:40;17.20;99.90
78550;DHT22;68091;52.130;5.570;2023-10-08T00:23:13;17.20;99.90
78550;DHT22;68091;52.130;5.570;2023-10-08T00:25:40;17.20;99.90
78550;DHT22;68091;52.130;5.570;2023-10-08T00:28:12;17.20;99.90
78550;DHT22;68091;52.130;5.570;2023-10-08T00:30:42;17.20;99.90
78550;DHT22;68091;52.130;5.570;2023-10-08T00:33:08;17.20;99.90
78550;DHT22;68091;52.130;5.570;2023-10-08T00:35:41;17.10;99.90
78550;DHT22;68091;52.130;5.570;2023-10-08T00:38:10;17.20;99.90
78550;DHT22;68091;52.130;5.570;2023-10-08T00:40:45;17.20;99.90
78550;DHT22;68091;52.130;5.570;2023-10-08T00:43:28;17.20;99.90
78550;DHT22;68091;52.130;5.570;2023-10-08T00:45:54;17.10;99.90
78550;DHT22;68091;52.130;5.570;2023-10-08T00:48:19;17.20;99.90
78550;DHT22;68091;52.130;5.570;2023-10-08T00:50:47;17.20;99.90
78550;DHT22;68091;52.130;5.570;2023-10-08T00:53:13;17.10;99.90
78550;DHT22;68091;52.130;5.570;2023-10-08T00:55:47;17.10;99.90
78550;DHT22;68091;52.130;5.570;2023-10-08T00:58:19;17.10;99.90
78550;DHT22;68091;52.130;5.570;2023-10-08T01:00:51;17.10;99.90
78550;DHT22;68091;52.130;5.570;2023-10-08T01:03:22;17.10;99.90
78550;DHT22;68091;52.130;5.570;2023-10-08T01:05:47;17.10;99.90
78550;DHT22;68091;52.130;5.570;2023-10-08T01:08:14;17.10;99.90
78550;DHT22;68091;52.130;5.570;2023-10-08T01:10:44;17.10;99.90
78550;DHT22;68091;52.130;5.570;2023-10-08T01:13:13;17.10;99.90
78550;DHT22;68091;52.130;5.570;2023-10-08T01:15:48;17.10;99.90
78550;DHT22;68091;52.130;5.570;2023-10-08T01:18:17;17.10;99.90
78550;DHT22;68091;52.130;5.570;2023-10-08T01:20:49;17.00;99.90
78550;DHT22;68091;52.130;5.570;2023-10-08T01:23:18;17.00;99.90
78550;DHT22;68091;52.130;5.570;2023-10-08T01:25:46;17.00;99.90
78550;DHT22;68091;52.130;5.570;2023-10-08T01:28:35;17.00;99.90
78550;DHT22;68091;52.130;5.570;2023-10-08T01:31:00;17.00;99.90
78550;DHT22;68091;52.130;5.570;2023-10-08T01:33:29;16.90;99.90
78550;DHT22;68091;52.130;5.570;2023-10-08T01:36:02;17.00;99.90
78550;DHT22;68091;52.130;5.570;2023-10-08T01:38:30;17.00;99.90
78550;DHT22;68091;52.130;5.570;2023-10-08T01:40:56;16.90;99.90
78550;DHT22;68091;52.130;5.570;2023-10-08T01:43:22;16.90;99.90
78550;DHT22;68091;52.130;5.570;2023-10-08T01:45:48;16.90;99.90
78550;DHT22;68091;52.130;5.570;2023-10-08T01:48:17;16.80;99.90
78550;DHT22;68091;52.130;5.570;2023-10-08T01:50:46;16.80;99.90
78550;DHT22;68091;52.130;5.570;2023-10-08T01:53:13;16.80;99.90
78550;DHT22;68091;52.130;5.570;2023-10-08T01:55:49;16.70;99.90
78550;DHT22;68091;52.130;5.570;2023-10-08T01:58:17;16.70;99.90
78550;DHT22;68091;52.130;5.570;2023-10-08T02:00:46;16.80;99.90
78550;DHT22;68091;52.130;5.570;2023-10-08T02:03:12;16.60;99.90
78550;DHT22;68091;52.130;5.570;2023-10-08T02:05:41;16.70;99.90
78550;DHT22;68091;52.130;5.570;2023-10-08T02:08:10;16.70;99.90
78550;DHT22;68091;52.130;5.570;2023-10-08T02:10:37;16.70;99.90
78550;DHT22;68091;52.130;5.570;2023-10-08T02:13:03;16.70;99.90
78550;DHT22;68091;52.130;5.570;2023-10-08T02:15:30;16.60;99.90
78550;DHT22;68091;52.130;5.570;2023-10-08T02:17:55;16.70;99.90
78550;DHT22;68091;52.130;5.570;2023-10-08T02:20:22;16.70;99.90
78550;DHT22;68091;52.130;5.570;2023-10-08T02:22:47;16.60;99.90
78550;DHT22;68091;52.130;5.570;2023-10-08T02:25:14;16.60;99.90
78550;DHT22;68091;52.130;5.570;2023-10-08T02:27:40;16.60;99.90
78550;DHT22;68091;52.130;5.570;2023-10-08T02:30:08;16.70;99.90
78550;DHT22;68091;52.130;5.570;2023-10-08T02:32:35;16.70;99.90
78550;DHT22;68091;52.130;5.570;2023-10-08T02:35:02;16.70;99.90
78550;DHT22;68091;52.130;5.570;2023-10-08T02:37:28;16.70;99.90
78550;DHT22;68091;52.130;5.570;2023-10-08T02:39:53;16.70;99.90
78550;DHT22;68091;52.130;5.570;2023-10-08T02:42:23;16.70;99.90
78550;DHT22;68091;52.130;5.570;2023-10-08T02:44:49;16.70;99.90
78550;DHT22;68091;52.130;5.570;2023-10-08T02:47:16;16.70;99.90
78550;DHT22;68091;52.130;5.570;2023-10-08T02:49:47;16.70;99.90
78550;DHT22;68091;52.130;5.570;2023-10-08T02:52:17;16.70;99.90
78550;DHT22;68091;52.130;5.570;2023-10-08T02:54:43;16.70;99.90
78550;DHT22;68091;52.130;5.570;2023-10-08T02:57:08;16.70;99.90
78550;DHT22;68091;52.130;5.570;2023-10-08T02:59:42;16.60;99.90
78550;DHT22;68091;52.130;5.570;2023-10-08T03:02:13;16.60;99.90
78550;DHT22;68091;52.130;5.570;2023-10-08T03:04:42;16.60;99.90
78550;DHT22;68091;52.130;5.570;2023-10-08T03:07:15;16.60;99.90
78550;DHT22;68091;52.130;5.570;2023-10-08T03:09:47;16.60;99.90
78550;DHT22;68091;52.130;5.570;2023-10-08T03:12:15;16.60;99.90
78550;DHT22;68091;52.130;5.570;2023-10-08T03:14:42;16.50;99.90
78550;DHT22;68091;52.130;5.570;2023-10-08T03:17:15;16.50;99.90
78550;DHT22;68091;52.130;5.570;2023-10-08T03:19:45;16.50;99.90
78550;DHT22;68091;52.130;5.570;2023-10-08T03:22:11;16.50;99.90
78550;DHT22;68091;52.130;5.570;2023-10-08T03:24:37;16.50;99.90
78550;DHT22;68091;52.130;5.570;2023-10-08T03:27:04;16.50;99.90
78550;DHT22;68091;52.130;5.570;2023-10-08T03:29:37;16.50;99.90
78550;DHT22;68091;52.130;5.570;2023-10-08T03:32:10;16.50;99.90
78550;DHT22;68091;52.130;5.570;2023-10-08T03:34:51;16.50;99.90
78550;DHT22;68091;52.130;5.570;2023-10-08T03:37:21;16.50;99.90
78550;DHT22;68091;52.130;5.570;2023-10-08T03:39:50;16.50;99.90
78550;DHT22;68091;52.130;5.570;2023-10-08T03:42:19;16.50;99.90
78550;DHT22;68091;52.130;5.570;2023-10-08T03:44:46;16.50;99.90
78550;DHT22;68091;52.130;5.570;2023-10-08T03:47:16;16.60;99.90
78550;DHT22;68091;52.130;5.570;2023-10-08T03:49:44;16.50;99.90
78550;DHT22;68091;52.130;5.570;2023-10-08T03:52:11;16.50;99.90
78550;DHT22;68091;52.130;5.570;2023-10-08T03:54:38;16.50;99.90
78550;DHT22;68091;52.130;5.570;2023-10-08T03:57:08;16.50;99.90
78550;DHT22;68091;52.130;5.570;2023-10-08T03:59:41;16.60;99.90
78550;DHT22;68091;52.130;5.570;2023-10-08T04:02:07;16.60;99.90
78550;DHT22;68091;52.130;5.570;2023-10-08T04:04:39;16.60;99.90
78550;DHT22;68091;52.130;5.570;2023-10-08T04:07:19;16.60;99.90
78550;DHT22;68091;52.130;5.570;2023-10-08T04:10:05;16.60;99.90
78550;DHT22;68091;52.130;5.570;2023-10-08T04:12:51;16.60;99.90
78550;DHT22;68091;52.130;5.570;2023-10-08T04:15:18;16.70;99.90
78550;DHT22;68091;52.130;5.570;2023-10-08T04:17:44;16.70;99.90
78550;DHT22;68091;52.130;5.570;2023-10-08T04:20:16;16.70;99.90
78550;DHT22;68091;52.130;5.570;2023-10-08T04:23:01;16.70;99.90
78550;DHT22;68091;52.130;5.570;2023-10-08T04:25:27;16.60;99.90
78550;DHT22;68091;52.130;5.570;2023-10-08T04:27:56;16.40;99.90
78550;DHT22;68091;52.130;5.570;2023-10-08T04:30:42;16.30;99.90
78550;DHT22;68091;52.130;5.570;2023-10-08T04:33:11;16.20;99.90
78550;DHT22;68091;52.130;5.570;2023-10-08T04:35:38;16.20;99.90
78550;DHT22;68091;52.130;5.570;2023-10-08T04:38:27;16.20;99.90
78550;DHT22;68091;52.130;5.570;2023-10-08T04:41:01;16.00;99.90
78550;DHT22;68091;52.130;5.570;2023-10-08T04:43:33;15.90;99.90
78550;DHT22;68091;52.130;5.570;2023-10-08T04:46:03;15.90;99.90
78550;DHT22;68091;52.130;5.570;2023-10-08T04:48:44;15.80;99.90
78550;DHT22;68091;52.130;5.570;2023-10-08T04:51:10;15.70;99.90
78550;DHT22;68091;52.130;5.570;2023-10-08T04:53:38;15.40;99.90
78550;DHT22;68091;52.130;5.570;2023-10-08T04:56:09;15.30;99.90
78550;DHT22;68091;52.130;5.570;2023-10-08T04:58:46;15.20;99.90
78550;DHT22;68091;52.130;5.570;2023-10-08T05:01:16;15.10;99.90
78550;DHT22;68091;52.130;5.570;2023-10-08T05:04:03;15.00;99.90
78550;DHT22;68091;52.130;5.570;2023-10-08T05:06:30;14.80;99.90
78550;DHT22;68091;52.130;5.570;2023-10-08T05:11:52;14.70;99.90
78550;DHT22;68091;52.130;5.570;2023-10-08T05:17:07;14.70;99.90
78550;DHT22;68091;52.130;5.570;2023-10-08T05:19:47;14.70;99.90
78550;DHT22;68091;52.130;5.570;2023-10-08T05:22:14;14.70;99.90
78550;DHT22;68091;52.130;5.570;2023-10-08T05:25:03;14.60;99.90
78550;DHT22;68091;52.130;5.570;2023-10-08T05:27:42;14.60;99.90
78550;DHT22;68091;52.130;5.570;2023-10-08T05:30:21;14.50;99.90
78550;DHT22;68091;52.130;5.570;2023-10-08T05:33:05;14.50;99.90
78550;DHT22;68091;52.130;5.570;2023-10-08T05:35:54;14.50;99.90
78550;DHT22;68091;52.130;5.570;2023-10-08T05:38:22;14.50;99.90
78550;DHT22;68091;52.130;5.570;2023-10-08T05:40:52;14.40;99.90
78550;DHT22;68091;52.130;5.570;2023-10-08T05:43:24;14.40;99.90
78550;DHT22;68091;52.130;5.570;2023-10-08T05:46:08;14.40;99.90
78550;DHT22;68091;52.130;5.570;2023-10-08T05:48:46;14.20;99.90
78550;DHT22;68091;52.130;5.570;2023-10-08T05:51:26;14.30;99.90
78550;DHT22;68091;52.130;5.570;2023-10-08T05:54:14;14.10;99.90
78550;DHT22;68091;52.130;5.570;2023-10-08T05:57:02;14.20;99.90
78550;DHT22;68091;52.130;5.570;2023-10-08T05:59:37;14.20;99.90
78550;DHT22;68091;52.130;5.570;2023-10-08T06:02:18;14.20;99.90
78550;DHT22;68091;52.130;5.570;2023-10-08T06:05:02;14.20;99.90
78550;DHT22;68091;52.130;5.570;2023-10-08T06:07:41;14.20;99.90
78550;DHT22;68091;52.130;5.570;2023-10-08T06:10:37;14.10;99.90
78550;DHT22;68091;52.130;5.570;2023-10-08T06:13:06;14.00;99.90
78550;DHT22;68091;52.130;5.570;2023-10-08T06:15:36;14.00;99.90
78550;DHT22;68091;52.130;5.570;2023-10-08T06:18:17;14.00;99.90
78550;DHT22;68091;52.130;5.570;2023-10-08T06:20:44;14.00;99.90
78550;DHT22;68091;52.130;5.570;2023-10-08T06:23:14;14.00;99.90
78550;DHT22;68091;52.130;5.570;2023-10-08T06:25:50;14.00;99.90
78550;DHT22;68091;52.130;5.570;2023-10-08T06:28:40;13.90;99.90
78550;DHT22;68091;52.130;5.570;2023-10-08T06:31:07;14.00;99.90
78550;DHT22;68091;52.130;5.570;2023-10-08T06:33:37;13.90;99.90
78550;DHT22;68091;52.130;5.570;2023-10-08T06:36:03;14.00;99.90
78550;DHT22;68091;52.130;5.570;2023-10-08T06:38:45;14.00;99.90
78550;DHT22;68091;52.130;5.570;2023-10-08T06:41:14;14.00;99.90
78550;DHT22;68091;52.130;5.570;2023-10-08T06:43:42;14.00;99.90
78550;DHT22;68091;52.130;5.570;2023-10-08T06:46:12;13.90;99.90
78550;DHT22;68091;52.130;5.570;2023-10-08T06:48:41;13.90;99.90
78550;DHT22;68091;52.130;5.570;2023-10-08T06:51:11;14.00;99.90
78550;DHT22;68091;52.130;5.570;2023-10-08T06:53:44;14.00;99.90
78550;DHT22;68091;52.130;5.570;2023-10-08T06:56:16;14.00;99.90
78550;DHT22;68091;52.130;5.570;2023-10-08T06:58:42;14.10;99.90
78550;DHT22;68091;52.130;5.570;2023-10-08T07:01:17;14.10;99.90
78550;DHT22;68091;52.130;5.570;2023-10-08T07:04:06;14.10;99.90
78550;DHT22;68091;52.130;5.570;2023-10-08T07:06:40;14.00;99.90
78550;DHT22;68091;52.130;5.570;2023-10-08T07:09:06;14.00;99.90
78550;DHT22;68091;52.130;5.570;2023-10-08T07:14:50;14.10;99.90
78550;DHT22;68091;52.130;5.570;2023-10-08T07:17:20;14.10;99.90
78550;DHT22;68091;52.130;5.570;2023-10-08T07:19:53;14.10;99.90
78550;DHT22;68091;52.130;5.570;2023-10-08T07:22:18;14.10;99.90
78550;DHT22;68091;52.130;5.570;2023-10-08T07:24:47;14.20;99.90
78550;DHT22;68091;52.130;5.570;2023-10-08T07:27:19;14.10;99.90
78550;DHT22;68091;52.130;5.570;2023-10-08T07:29:55;14.20;99.90
78550;DHT22;68091;52.130;5.570;2023-10-08T07:32:21;14.30;99.90
78550;DHT22;68091;52.130;5.570;2023-10-08T07:34:46;14.20;99.90
78550;DHT22;68091;52.130;5.570;2023-10-08T07:37:12;14.10;99.90
78550;DHT22;68091;52.130;5.570;2023-10-08T07:39:39;14.20;99.90
78550;DHT22;68091;52.130;5.570;2023-10-08T07:42:15;14.30;99.90
78550;DHT22;68091;52.130;5.570;2023-10-08T07:44:43;14.30;99.90
78550;DHT22;68091;52.130;5.570;2023-10-08T07:47:09;14.30;99.90
78550;DHT22;68091;52.130;5.570;2023-10-08T07:49:39;14.40;99.90
78550;DHT22;68091;52.130;5.570;2023-10-08T07:52:11;14.50;99.90
78550;DHT22;68091;52.130;5.570;2023-10-08T07:54:40;14.60;99.90
78550;DHT22;68091;52.130;5.570;2023-10-08T07:57:06;14.80;99.90
78550;DHT22;68091;52.130;5.570;2023-10-08T07:59:38;14.70;99.90
78550;DHT22;68091;52.130;5.570;2023-10-08T08:02:05;14.70;99.90
78550;DHT22;68091;52.130;5.570;2023-10-08T08:04:36;14.80;99.90
78550;DHT22;68091;52.130;5.570;2023-10-08T08:07:04;14.70;99.90
78550;DHT22;68091;52.130;5.570;2023-10-08T08:09:30;14.70;99.90
78550;DHT22;68091;52.130;5.570;2023-10-08T08:14:49;15.00;99.90
78550;DHT22;68091;52.130;5.570;2023-10-08T08:17:18;15.00;99.90
78550;DHT22;68091;52.130;5.570;2023-10-08T08:19:44;15.00;99.90
78550;DHT22;68091;52.130;5.570;2023-10-08T08:22:14;15.10;99.90
78550;DHT22;68091;52.130;5.570;2023-10-08T08:24:52;15.10;99.90
78550;DHT22;68091;52.130;5.570;2023-10-08T08:27:20;15.10;99.90
78550;DHT22;68091;52.130;5.570;2023-10-08T08:30:05;14.90;99.90
78550;DHT22;68091;52.130;5.570;2023-10-08T08:32:41;15.00;99.90
78550;DHT22;68091;52.130;5.570;2023-10-08T08:35:10;15.00;99.90
78550;DHT22;68091;52.130;5.570;2023-10-08T08:37:36;15.10;99.90
78550;DHT22;68091;52.130;5.570;2023-10-08T08:40:04;15.20;99.90
78550;DHT22;68091;52.130;5.570;2023-10-08T08:42:47;15.20;99.90
78550;DHT22;68091;52.130;5.570;2023-10-08T08:45:13;15.10;99.90
78550;DHT22;68091;52.130;5.570;2023-10-08T08:47:40;15.10;99.90
78550;DHT22;68091;52.130;5.570;2023-10-08T08:50:06;15.20;99.90
78550;DHT22;68091;52.130;5.570;2023-10-08T08:52:35;15.10;99.90
78550;DHT22;68091;52.130;5.570;2023-10-08T08:55:03;15.00;99.90
78550;DHT22;68091;52.130;5.570;2023-10-08T08:57:32;15.10;99.90
78550;DHT22;68091;52.130;5.570;2023-10-08T08:59:58;15.10;99.90
78550;DHT22;68091;52.130;5.570;2023-10-08T09:02:24;15.20;99.90
78550;DHT22;68091;52.130;5.570;2023-10-08T09:04:50;15.40;99.90
78550;DHT22;68091;52.130;5.570;2023-10-08T09:07:23;15.60;99.90
78550;DHT22;68091;52.130;5.570;2023-10-08T09:09:48;15.70;99.90
78550;DHT22;68091;52.130;5.570;2023-10-08T09:12:18;15.80;99.90
78550;DHT22;68091;52.130;5.570;2023-10-08T09:14:43;15.80;99.90
78550;DHT22;68091;52.130;5.570;2023-10-08T09:17:13;15.80;99.90
78550;DHT22;68091;52.130;5.570;2023-10-08T09:19:40;15.70;99.90
78550;DHT22;68091;52.130;5.570;2023-10-08T09:22:07;15.80;99.90
78550;DHT22;68091;52.130;5.570;2023-10-08T09:24:37;16.00;99.90
78550;DHT22;68091;52.130;5.570;2023-10-08T09:27:06;15.90;99.90
78550;DHT22;68091;52.130;5.570;2023-10-08T09:29:34;16.00;99.90
78550;DHT22;68091;52.130;5.570;2023-10-08T09:32:10;15.90;99.90
78550;DHT22;68091;52.130;5.570;2023-10-08T09:34:35;16.10;99.90
78550;DHT22;68091;52.130;5.570;2023-10-08T09:37:02;16.20;99.90
78550;DHT22;68091;52.130;5.570;2023-10-08T09:39:28;16.20;99.90
78550;DHT22;68091;52.130;5.570;2023-10-08T09:42:00;16.20;99.90
78550;DHT22;68091;52.130;5.570;2023-10-08T09:44:27;16.20;99.90
78550;DHT22;68091;52.130;5.570;2023-10-08T09:46:54;16.40;99.90
78550;DHT22;68091;52.130;5.570;2023-10-08T09:49:33;16.30;99.90
78550;DHT22;68091;52.130;5.570;2023-10-08T09:52:02;16.60;99.90
78550;DHT22;68091;52.130;5.570;2023-10-08T09:54:28;16.80;99.90
78550;DHT22;68091;52.130;5.570;2023-10-08T09:56:58;16.80;99.90
78550;DHT22;68091;52.130;5.570;2023-10-08T09:59:25;16.70;99.90
78550;DHT22;68091;52.130;5.570;2023-10-08T10:01:52;16.70;99.90
78550;DHT22;68091;52.130;5.570;2023-10-08T10:04:24;16.80;99.90
78550;DHT22;68091;52.130;5.570;2023-10-08T10:06:50;16.70;99.90
78550;DHT22;68091;52.130;5.570;2023-10-08T10:09:22;16.70;99.90
78550;DHT22;68091;52.130;5.570;2023-10-08T10:11:49;16.70;99.90
78550;DHT22;68091;52.130;5.570;2023-10-08T10:17:41;16.90;99.90
78550;DHT22;68091;52.130;5.570;2023-10-08T10:20:07;16.80;99.90
78550;DHT22;68091;52.130;5.570;2023-10-08T10:22:38;16.80;99.90
78550;DHT22;68091;52.130;5.570;2023-10-08T10:25:07;16.90;99.90
78550;DHT22;68091;52.130;5.570;2023-10-08T10:30:24;17.00;99.90
78550;DHT22;68091;52.130;5.570;2023-10-08T10:32:53;17.20;99.90
78550;DHT22;68091;52.130;5.570;2023-10-08T10:35:19;17.10;99.90
78550;DHT22;68091;52.130;5.570;2023-10-08T10:37:51;17.20;99.90
78550;DHT22;68091;52.130;5.570;2023-10-08T10:40:20;17.10;99.90
78550;DHT22;68091;52.130;5.570;2023-10-08T10:42:57;17.10;99.90
78550;DHT22;68091;52.130;5.570;2023-10-08T10:45:29;17.30;99.90
78550;DHT22;68091;52.130;5.570;2023-10-08T10:48:09;17.30;99.90
78550;DHT22;68091;52.130;5.570;2023-10-08T10:50:45;17.40;99.90
78550;DHT22;68091;52.130;5.570;2023-10-08T10:53:37;17.50;99.90
78550;DHT22;68091;52.130;5.570;2023-10-08T10:56:23;17.50;99.90
78550;DHT22;68091;52.130;5.570;2023-10-08T10:59:01;17.50;99.90
78550;DHT22;68091;52.130;5.570;2023-10-08T11:01:40;17.60;99.90
78550;DHT22;68091;52.130;5.570;2023-10-08T11:04:17;17.60;99.90
78550;DHT22;68091;52.130;5.570;2023-10-08T11:06:45;17.60;99.90
78550;DHT22;68091;52.130;5.570;2023-10-08T11:09:11;17.60;99.90
78550;DHT22;68091;52.130;5.570;2023-10-08T11:11:42;17.60;99.90
78550;DHT22;68091;52.130;5.570;2023-10-08T11:14:11;17.60;99.90
78550;DHT22;68091;52.130;5.570;2023-10-08T11:16:42;17.70;99.90
78550;DHT22;68091;52.130;5.570;2023-10-08T11:19:08;17.80;99.90
78550;DHT22;68091;52.130;5.570;2023-10-08T11:21:52;17.80;99.90
78550;DHT22;68091;52.130;5.570;2023-10-08T11:24:30;17.90;99.90
78550;DHT22;68091;52.130;5.570;2023-10-08T11:27:07;17.90;99.90
78550;DHT22;68091;52.130;5.570;2023-10-08T11:29:48;17.90;99.90
78550;DHT22;68091;52.130;5.570;2023-10-08T11:32:22;17.70;99.90
78550;DHT22;68091;52.130;5.570;2023-10-08T11:34:57;17.80;99.90
78550;DHT22;68091;52.130;5.570;2023-10-08T11:37:26;17.80;99.90
78550;DHT22;68091;52.130;5.570;2023-10-08T11:39:52;17.60;99.90
78550;DHT22;68091;52.130;5.570;2023-10-08T11:42:18;17.40;99.90
78550;DHT22;68091;52.130;5.570;2023-10-08T11:45:13;17.30;99.90
78550;DHT22;68091;52.130;5.570;2023-10-08T11:47:55;17.20;99.90
78550;DHT22;68091;52.130;5.570;2023-10-08T11:50:28;17.40;99.90
78550;DHT22;68091;52.130;5.570;2023-10-08T11:53:09;17.40;99.90
78550;DHT22;68091;52.130;5.570;2023-10-08T11:55:37;17.40;99.90
78550;DHT22;68091;52.130;5.570;2023-10-08T11:58:07;17.60;99.90
78550;DHT22;68091;52.130;5.570;2023-10-08T12:00:37;17.50;99.90
78550;DHT22;68091;52.130;5.570;2023-10-08T12:03:12;17.60;99.90
78550;DHT22;68091;52.130;5.570;2023-10-08T12:05:47;17.60;99.90
78550;DHT22;68091;52.130;5.570;2023-10-08T12:08:14;17.60;99.90
78550;DHT22;68091;52.130;5.570;2023-10-08T12:10:44;17.60;99.90
78550;DHT22;68091;52.130;5.570;2023-10-08T12:13:14;17.50;99.90
78550;DHT22;68091;52.130;5.570;2023-10-08T12:15:43;17.40;99.90
78550;DHT22;68091;52.130;5.570;2023-10-08T12:18:10;17.30;99.90
78550;DHT22;68091;52.130;5.570;2023-10-08T12:20:41;17.40;99.90
78550;DHT22;68091;52.130;5.570;2023-10-08T12:26:08;17.70;99.90
78550;DHT22;68091;52.130;5.570;2023-10-08T12:28:34;17.80;99.90
78550;DHT22;68091;52.130;5.570;2023-10-08T12:31:02;17.70;99.90
78550;DHT22;68091;52.130;5.570;2023-10-08T12:33:29;17.70;99.90
78550;DHT22;68091;52.130;5.570;2023-10-08T12:35:55;17.60;99.90
78550;DHT22;68091;52.130;5.570;2023-10-08T12:38:22;17.40;99.90
78550;DHT22;68091;52.130;5.570;2023-10-08T12:40:48;17.50;99.90
78550;DHT22;68091;52.130;5.570;2023-10-08T12:43:18;17.60;99.90
78550;DHT22;68091;52.130;5.570;2023-10-08T12:45:51;17.50;99.90
78550;DHT22;68091;52.130;5.570;2023-10-08T12:48:27;17.30;99.90
78550;DHT22;68091;52.130;5.570;2023-10-08T12:50:56;17.30;99.90
78550;DHT22;68091;52.130;5.570;2023-10-08T12:53:26;17.50;99.90
78550;DHT22;68091;52.130;5.570;2023-10-08T12:55:53;17.50;99.90
78550;DHT22;68091;52.130;5.570;2023-10-08T12:58:22;17.50;99.90
78550;DHT22;68091;52.130;5.570;2023-10-08T13:00:55;17.60;99.90
78550;DHT22;68091;52.130;5.570;2023-10-08T13:03:26;17.60;99.90
78550;DHT22;68091;52.130;5.570;2023-10-08T13:05:57;17.50;99.90
78550;DHT22;68091;52.130;5.570;2023-10-08T13:08:30;17.40;99.90
78550;DHT22;68091;52.130;5.570;2023-10-08T13:10:56;17.30;99.90
78550;DHT22;68091;52.130;5.570;2023-10-08T13:13:35;17.20;99.90
78550;DHT22;68091;52.130;5.570;2023-10-08T13:16:02;17.20;99.90
78550;DHT22;68091;52.130;5.570;2023-10-08T13:18:33;17.20;99.90
78550;DHT22;68091;52.130;5.570;2023-10-08T13:21:03;17.20;99.90
78550;DHT22;68091;52.130;5.570;2023-10-08T13:23:29;17.20;99.90
78550;DHT22;68091;52.130;5.570;2023-10-08T13:25:54;17.20;99.90
78550;DHT22;68091;52.130;5.570;2023-10-08T13:28:24;17.20;99.90
78550;DHT22;68091;52.130;5.570;2023-10-08T13:30:52;17.20;99.90
78550;DHT22;68091;52.130;5.570;2023-10-08T13:33:19;17.20;99.90
78550;DHT22;68091;52.130;5.570;2023-10-08T13:35:47;17.20;99.90
78550;DHT22;68091;52.130;5.570;2023-10-08T13:38:16;17.30;99.90
78550;DHT22;68091;52.130;5.570;2023-10-08T13:40:41;17.30;99.90
78550;DHT22;68091;52.130;5.570;2023-10-08T13:43:30;17.40;99.90
78550;DHT22;68091;52.130;5.570;2023-10-08T13:46:02;17.40;99.90
78550;DHT22;68091;52.130;5.570;2023-10-08T13:48:35;17.30;99.90
78550;DHT22;68091;52.130;5.570;2023-10-08T13:51:02;17.30;99.90
78550;DHT22;68091;52.130;5.570;2023-10-08T13:53:29;17.30;99.90
78550;DHT22;68091;52.130;5.570;2023-10-08T13:55:59;17.20;99.90
78550;DHT22;68091;52.130;5.570;2023-10-08T13:58:28;17.20;99.90
78550;DHT22;68091;52.130;5.570;2023-10-08T14:01:01;17.50;99.90
78550;DHT22;68091;52.130;5.570;2023-10-08T14:03:29;17.40;99.90
78550;DHT22;68091;52.130;5.570;2023-10-08T14:05:59;17.40;99.90
78550;DHT22;68091;52.130;5.570;2023-10-08T14:08:30;17.40;99.90
78550;DHT22;68091;52.130;5.570;2023-10-08T14:10:56;17.40;99.90
78550;DHT22;68091;52.130;5.570;2023-10-08T14:13:29;17.30;99.90
78550;DHT22;68091;52.130;5.570;2023-10-08T14:15:55;17.20;99.90
78550;DHT22;68091;52.130;5.570;2023-10-08T14:18:27;17.20;99.90
78550;DHT22;68091;52.130;5.570;2023-10-08T14:20:54;17.30;99.90
78550;DHT22;68091;52.130;5.570;2023-10-08T14:23:22;17.30;99.90
78550;DHT22;68091;52.130;5.570;2023-10-08T14:25:53;17.30;99.90
78550;DHT22;68091;52.130;5.570;2023-10-08T14:28:31;17.20;99.90
78550;DHT22;68091;52.130;5.570;2023-10-08T14:31:09;17.20;99.90
78550;DHT22;68091;52.130;5.570;2023-10-08T14:33:43;17.20;99.90
78550;DHT22;68091;52.130;5.570;2023-10-08T14:36:30;17.10;99.90
78550;DHT22;68091;52.130;5.570;2023-10-08T14:39:17;17.10;99.90
78550;DHT22;68091;52.130;5.570;2023-10-08T14:42:02;17.00;99.90
78550;DHT22;68091;52.130;5.570;2023-10-08T14:44:46;17.10;99.90
78550;DHT22;68091;52.130;5.570;2023-10-08T14:47:12;17.00;99.90
78550;DHT22;68091;52.130;5.570;2023-10-08T14:49:38;17.10;99.90
78550;DHT22;68091;52.130;5.570;2023-10-08T14:52:03;17.10;99.90
78550;DHT22;68091;52.130;5.570;2023-10-08T14:54:30;17.20;99.90
78550;DHT22;68091;52.130;5.570;2023-10-08T14:56:56;17.00;99.90
78550;DHT22;68091;52.130;5.570;2023-10-08T14:59:22;17.20;99.90
78550;DHT22;68091;52.130;5.570;2023-10-08T15:01:48;17.20;99.90
78550;DHT22;68091;52.130;5.570;2023-10-08T15:04:15;17.10;99.90
78550;DHT22;68091;52.130;5.570;2023-10-08T15:06:44;17.00;99.90
78550;DHT22;68091;52.130;5.570;2023-10-08T15:09:11;17.10;99.90
78550;DHT22;68091;52.130;5.570;2023-10-08T15:11:44;17.20;99.90
78550;DHT22;68091;52.130;5.570;2023-10-08T15:14:11;17.10;99.90
78550;DHT22;68091;52.130;5.570;2023-10-08T15:16:39;17.00;99.90
78550;DHT22;68091;52.130;5.570;2023-10-08T15:19:05;17.00;99.90
78550;DHT22;68091;52.130;5.570;2023-10-08T15:21:31;17.00;99.90
78550;DHT22;68091;52.130;5.570;2023-10-08T15:23:59;16.90;99.90
78550;DHT22;68091;52.130;5.570;2023-10-08T15:26:36;17.00;99.90
78550;DHT22;68091;52.130;5.570;2023-10-08T15:29:01;16.80;99.90
78550;DHT22;68091;52.130;5.570;2023-10-08T15:31:28;16.70;99.90
78550;DHT22;68091;52.130;5.570;2023-10-08T15:33:53;16.70;99.90
78550;DHT22;68091;52.130;5.570;2023-10-08T15:36:19;16.80;99.90
78550;DHT22;68091;52.130;5.570;2023-10-08T15:38:45;16.80;99.90
78550;DHT22;68091;52.130;5.570;2023-10-08T15:41:10;16.80;99.90
78550;DHT22;68091;52.130;5.570;2023-10-08T15:43:39;16.80;99.90
78550;DHT22;68091;52.130;5.570;2023-10-08T15:46:05;16.70;99.90
78550;DHT22;68091;52.130;5.570;2023-10-08T15:48:31;16.60;99.90
78550;DHT22;68091;52.130;5.570;2023-10-08T15:50:57;16.60;99.90
78550;DHT22;68091;52.130;5.570;2023-10-08T15:53:23;16.60;99.90
78550;DHT22;68091;52.130;5.570;2023-10-08T15:55:48;16.50;99.90
78550;DHT22;68091;52.130;5.570;2023-10-08T15:58:14;16.50;99.90
78550;DHT22;68091;52.130;5.570;2023-10-08T16:00:40;16.50;99.90
78550;DHT22;68091;52.130;5.570;2023-10-08T16:03:05;16.50;99.90
78550;DHT22;68091;52.130;5.570;2023-10-08T16:05:32;16.50;99.90
78550;DHT22;68091;52.130;5.570;2023-10-08T16:08:00;16.40;99.90
78550;DHT22;68091;52.130;5.570;2023-10-08T16:10:26;16.40;99.90
78550;DHT22;68091;52.130;5.570;2023-10-08T16:12:52;16.40;99.90